createdAt,value
2023-04-09T00:01:24.797Z,4.70
2023-04-09T00:03:52.866Z,4.27
2023-04-09T00:06:20.928Z,4.30
2023-04-09T00:08:50.270Z,5.40
2023-04-09T00:11:18.530Z,4.90
2023-04-09T00:13:47.814Z,5.60
2023-04-09T00:16:15.859Z,6.27
2023-04-09T00:18:43.860Z,6.13
2023-04-09T00:21:11.815Z,5.60
2023-04-09T00:23:39.831Z,6.90
2023-04-09T00:26:07.920Z,6.53
2023-04-09T00:28:36.131Z,5.90
2023-04-09T00:31:05.670Z,5.37
2023-04-09T00:33:33.638Z,5.77
2023-04-09T00:36:01.604Z,6.20
2023-04-09T00:38:29.530Z,5.33
2023-04-09T00:40:57.497Z,5.60
2023-04-09T00:43:25.569Z,5.67
2023-04-09T00:45:53.555Z,6.47
2023-04-09T00:48:22.977Z,5.67
2023-04-09T00:50:50.933Z,6.47
2023-04-09T00:53:18.892Z,6.83
2023-04-09T00:55:46.985Z,6.60
2023-04-09T00:58:15.071Z,6.03
2023-04-09T01:00:43.026Z,6.93
2023-04-09T01:03:11.134Z,7.60
2023-04-09T01:05:50.078Z,6.90
2023-04-09T01:08:29.819Z,7.50
2023-04-09T01:11:01.787Z,7.70
2023-04-09T01:13:31.635Z,6.90
2023-04-09T01:16:01.887Z,8.83
2023-04-09T01:18:32.134Z,7.37
2023-04-09T01:21:04.059Z,5.97
2023-04-09T01:23:38.524Z,7.60
2023-04-09T01:26:20.273Z,6.93
2023-04-09T01:28:51.088Z,6.73
2023-04-09T01:31:19.674Z,5.57
2023-04-09T01:33:47.648Z,8.00
2023-04-09T01:36:15.719Z,6.57
2023-04-09T01:38:44.019Z,6.53
2023-04-09T01:41:15.496Z,5.70
2023-04-09T01:43:43.460Z,6.30
2023-04-09T01:46:13.173Z,7.07
2023-04-09T01:48:41.209Z,8.03
2023-04-09T01:51:09.167Z,7.70
2023-04-09T01:53:37.526Z,7.40
2023-04-09T01:56:06.133Z,6.47
2023-04-09T01:58:35.171Z,6.67
2023-04-09T02:01:06.713Z,8.57
2023-04-09T02:03:38.750Z,7.63
2023-04-09T02:06:09.007Z,7.07
2023-04-09T02:08:36.971Z,7.27
2023-04-09T02:11:06.827Z,5.30
2023-04-09T02:13:34.863Z,6.43
2023-04-09T02:16:02.853Z,7.20
2023-04-09T02:18:31.345Z,7.60
2023-04-09T02:21:00.831Z,5.50
2023-04-09T02:23:28.832Z,5.37
2023-04-09T02:25:56.796Z,5.37
2023-04-09T02:28:24.759Z,4.90
2023-04-09T02:30:52.777Z,5.07
2023-04-09T02:33:20.829Z,4.33
2023-04-09T02:35:48.799Z,6.07
2023-04-09T02:38:18.190Z,4.80
2023-04-09T02:40:46.228Z,5.80
2023-04-09T02:43:14.186Z,5.70
2023-04-09T02:45:42.108Z,6.20
2023-04-09T02:48:10.071Z,5.93
2023-04-09T02:50:38.043Z,5.30
2023-04-09T02:53:05.996Z,4.90
2023-04-09T02:55:35.480Z,4.87
2023-04-09T02:58:03.465Z,3.90
2023-04-09T03:00:31.429Z,4.87
2023-04-09T03:02:59.445Z,4.23
2023-04-09T03:05:27.563Z,4.93
2023-04-09T03:07:56.045Z,3.90
2023-04-09T03:10:23.957Z,4.17
2023-04-09T03:12:53.278Z,4.60
2023-04-09T03:15:21.255Z,4.90
2023-04-09T03:17:49.260Z,4.70
2023-04-09T03:20:17.329Z,4.87
2023-04-09T03:22:45.286Z,4.80
2023-04-09T03:25:13.281Z,5.90
2023-04-09T03:27:41.193Z,5.93
2023-04-09T03:30:11.875Z,6.57
2023-04-09T03:32:39.856Z,7.83
2023-04-09T03:35:08.375Z,7.27
2023-04-09T03:37:36.657Z,6.87
2023-04-09T03:40:05.069Z,7.57
2023-04-09T03:42:35.049Z,7.13
2023-04-09T03:45:03.574Z,7.13
2023-04-09T03:47:32.924Z,5.43
2023-04-09T03:50:00.858Z,6.13
2023-04-09T03:52:28.797Z,6.07
2023-04-09T03:54:56.757Z,6.07
2023-04-09T03:57:24.755Z,5.00
2023-04-09T03:59:52.730Z,4.73
2023-04-09T04:02:20.755Z,6.47
2023-04-09T04:04:50.258Z,6.83
2023-04-09T04:07:18.338Z,6.40
2023-04-09T04:09:46.393Z,9.70
2023-04-09T04:12:14.306Z,8.47
2023-04-09T04:14:42.229Z,7.47
2023-04-09T04:17:10.286Z,8.73
2023-04-09T04:19:38.274Z,9.07
2023-04-09T04:22:07.614Z,7.67
2023-04-09T04:24:35.635Z,8.90
2023-04-09T04:27:03.606Z,8.30
2023-04-09T04:29:31.561Z,7.40
2023-04-09T04:31:59.573Z,6.77
2023-04-09T04:34:27.574Z,6.20
2023-04-09T04:36:55.527Z,5.10
2023-04-09T04:39:24.837Z,7.00
2023-04-09T04:41:52.799Z,6.97
2023-04-09T04:44:20.724Z,7.67
2023-04-09T04:46:48.625Z,6.00
2023-04-09T04:49:16.630Z,6.50
2023-04-09T04:51:44.562Z,6.60
2023-04-09T04:54:12.545Z,5.60
2023-04-09T04:56:41.873Z,5.40
2023-04-09T04:59:10.089Z,4.53
2023-04-09T05:01:38.285Z,5.67
2023-04-09T05:04:06.334Z,5.10
2023-04-09T05:06:34.293Z,5.00
2023-04-09T05:09:02.255Z,4.43
2023-04-09T05:11:30.196Z,3.30
2023-04-09T05:13:59.550Z,4.13
2023-04-09T05:16:27.506Z,3.83
2023-04-09T05:18:55.567Z,3.73
2023-04-09T05:21:23.544Z,3.37
2023-04-09T05:23:51.472Z,3.20
2023-04-09T05:26:19.436Z,2.43
2023-04-09T05:28:47.470Z,2.50
2023-04-09T05:31:16.886Z,3.30
2023-04-09T05:33:44.921Z,3.60
2023-04-09T05:36:16.354Z,1.70
2023-04-09T05:38:44.308Z,2.33
2023-04-09T05:41:12.242Z,2.90
2023-04-09T05:43:40.638Z,2.80
2023-04-09T05:46:08.640Z,2.00
2023-04-09T05:48:38.050Z,2.67
2023-04-09T05:51:06.031Z,2.23
2023-04-09T05:53:34.028Z,2.73
2023-04-09T05:56:02.030Z,2.30
2023-04-09T05:58:29.981Z,2.37
2023-04-09T06:00:57.953Z,2.07
2023-04-09T06:03:26.056Z,2.27
2023-04-09T06:05:55.484Z,1.90
2023-04-09T06:08:23.567Z,2.87
2023-04-09T06:10:51.523Z,2.47
2023-04-09T06:13:19.440Z,2.20
2023-04-09T06:15:48.272Z,2.30
2023-04-09T06:18:16.319Z,2.00
2023-04-09T06:20:44.227Z,2.50
2023-04-09T06:23:13.560Z,2.10
2023-04-09T06:25:41.686Z,1.63
2023-04-09T06:28:09.624Z,2.30
2023-04-09T06:30:37.862Z,1.90
2023-04-09T06:33:06.066Z,2.50
2023-04-09T06:35:34.134Z,2.70
2023-04-09T06:38:02.095Z,1.87
2023-04-09T06:40:31.476Z,2.33
2023-04-09T06:42:59.373Z,2.83
2023-04-09T06:45:27.618Z,2.83
2023-04-09T06:47:55.592Z,2.50
2023-04-09T06:50:23.576Z,2.00
2023-04-09T06:52:51.888Z,2.30
2023-04-09T06:55:19.941Z,3.40
2023-04-09T06:57:49.275Z,2.37
2023-04-09T07:00:17.559Z,2.60
2023-04-09T07:02:45.785Z,2.30
2023-04-09T07:05:13.823Z,2.20
2023-04-09T07:07:41.719Z,2.80
2023-04-09T07:10:10.759Z,3.10
2023-04-09T07:12:38.679Z,2.20
2023-04-09T07:15:09.359Z,2.37
2023-04-09T07:17:37.343Z,3.33
2023-04-09T07:20:05.955Z,3.53
2023-04-09T07:22:33.918Z,3.37
2023-04-09T07:25:02.019Z,2.60
2023-04-09T07:27:30.027Z,2.90
2023-04-09T07:29:58.149Z,4.13
2023-04-09T07:32:28.263Z,2.90
2023-04-09T07:34:57.368Z,3.40
2023-04-09T07:37:26.214Z,1.97
2023-04-09T07:39:54.501Z,2.50
2023-04-09T07:42:22.451Z,3.50
2023-04-09T07:44:50.483Z,3.03
2023-04-09T07:47:18.454Z,2.40
2023-04-09T07:49:47.821Z,3.10
2023-04-09T07:52:15.997Z,3.17
2023-04-09T07:54:44.022Z,3.27
2023-04-09T07:57:12.068Z,2.63
2023-04-09T07:59:40.082Z,2.50
2023-04-09T08:02:08.686Z,2.53
2023-04-09T08:04:36.949Z,2.33
2023-04-09T08:07:06.542Z,1.93
2023-04-09T08:09:34.480Z,2.57
2023-04-09T08:12:02.404Z,2.70
2023-04-09T08:14:30.505Z,3.07
2023-04-09T08:16:58.450Z,2.73
2023-04-09T08:19:26.396Z,2.73
2023-04-09T08:21:54.380Z,2.60
2023-04-09T08:24:23.745Z,2.23
2023-04-09T08:26:51.699Z,2.50
2023-04-09T08:29:19.653Z,2.47
2023-04-09T08:31:47.611Z,2.63
2023-04-09T08:34:17.492Z,2.40
2023-04-09T08:36:47.238Z,2.57
2023-04-09T08:39:15.193Z,2.50
2023-04-09T08:41:45.051Z,2.37
2023-04-09T08:44:13.375Z,2.43
2023-04-09T08:46:41.445Z,3.00
2023-04-09T08:49:10.042Z,3.63
2023-04-09T08:51:39.415Z,3.13
2023-04-09T08:54:07.480Z,2.60
2023-04-09T08:56:35.885Z,2.30
2023-04-09T08:59:05.572Z,2.70
2023-04-09T09:01:33.635Z,2.27
2023-04-09T09:04:03.143Z,2.67
2023-04-09T09:06:33.154Z,3.13
2023-04-09T09:09:02.936Z,2.63
2023-04-09T09:11:31.422Z,2.37
2023-04-09T09:14:00.151Z,3.20
2023-04-09T09:16:29.557Z,3.03
2023-04-09T09:18:57.982Z,2.77
2023-04-09T09:21:27.329Z,2.97
2023-04-09T09:23:55.369Z,3.20
2023-04-09T09:26:24.603Z,2.20
2023-04-09T09:28:52.949Z,3.83
2023-04-09T09:31:22.308Z,2.77
2023-04-09T09:33:51.807Z,2.60
2023-04-09T09:36:33.207Z,2.80
2023-04-09T09:39:03.891Z,3.03
2023-04-09T09:41:31.996Z,4.00
2023-04-09T09:43:59.939Z,3.40
2023-04-09T09:46:28.582Z,2.87
2023-04-09T09:48:57.876Z,2.80
2023-04-09T09:51:28.451Z,2.80
2023-04-09T09:53:57.133Z,2.90
2023-04-09T09:56:27.122Z,2.93
2023-04-09T09:58:57.646Z,2.57
2023-04-09T10:01:26.234Z,3.20
2023-04-09T10:03:54.342Z,2.97
2023-04-09T10:06:23.677Z,3.00
2023-04-09T10:08:52.774Z,3.03
2023-04-09T10:11:21.166Z,2.00
2023-04-09T10:13:52.759Z,2.23
2023-04-09T10:16:23.395Z,2.23
2023-04-09T10:18:51.622Z,3.13
2023-04-09T10:21:27.854Z,2.23
2023-04-09T10:23:55.774Z,1.70
2023-04-09T10:26:27.766Z,1.93
2023-04-09T10:29:07.034Z,1.83
2023-04-09T10:31:48.591Z,3.20
2023-04-09T10:34:17.260Z,1.90
2023-04-09T10:36:47.004Z,1.97
2023-04-09T10:39:14.959Z,2.40
2023-04-09T10:41:43.921Z,2.80
2023-04-09T10:44:21.921Z,2.20
2023-04-09T10:46:50.153Z,1.60
2023-04-09T10:49:19.242Z,2.00
2023-04-09T10:51:52.694Z,2.33
2023-04-09T10:54:46.703Z,1.87
2023-04-09T10:57:15.694Z,2.07
2023-04-09T10:59:45.164Z,2.33
2023-04-09T11:02:51.187Z,1.60
2023-04-09T11:05:33.595Z,1.67
2023-04-09T11:08:12.338Z,1.50
2023-04-09T11:10:41.108Z,1.83
2023-04-09T11:13:12.045Z,1.80
2023-04-09T11:15:39.985Z,2.30
2023-04-09T11:18:09.902Z,2.50
2023-04-09T11:20:38.006Z,1.80
2023-04-09T11:23:05.904Z,2.20
2023-04-09T11:25:35.671Z,2.30
2023-04-09T11:28:04.763Z,2.20
2023-04-09T11:30:34.440Z,1.63
2023-04-09T11:33:02.654Z,2.10
2023-04-09T11:35:30.711Z,1.93
2023-04-09T11:37:58.729Z,2.50
2023-04-09T11:40:29.120Z,2.70
2023-04-09T11:42:58.568Z,1.90
2023-04-09T11:45:28.104Z,2.07
2023-04-09T11:47:56.349Z,2.43
2023-04-09T11:50:24.306Z,2.13
2023-04-09T11:52:52.525Z,1.80
2023-04-09T11:55:27.212Z,2.23
2023-04-09T11:58:00.969Z,1.90
2023-04-09T12:00:30.503Z,1.87
2023-04-09T12:03:03.167Z,2.03
2023-04-09T12:05:32.493Z,2.17
2023-04-09T12:08:01.832Z,2.37
2023-04-09T12:10:30.394Z,6.60
2023-04-09T12:13:02.774Z,2.60
2023-04-09T12:15:34.269Z,2.87
2023-04-09T12:18:02.330Z,11.50
2023-04-09T12:20:31.355Z,5.20
2023-04-09T12:23:00.305Z,4.00
2023-04-09T12:25:28.382Z,6.30
2023-04-09T12:27:56.889Z,3.90
2023-04-09T12:30:24.940Z,8.93
2023-04-09T12:32:54.672Z,3.17
2023-04-09T12:35:22.936Z,4.70
2023-04-09T12:37:51.520Z,2.95
2023-04-09T12:40:20.638Z,2.00
2023-04-09T12:42:48.683Z,5.47
2023-04-09T12:45:17.294Z,4.23
2023-04-09T12:47:45.428Z,2.60
2023-04-09T12:50:15.070Z,2.10
2023-04-09T12:52:43.080Z,2.50
2023-04-09T12:55:11.626Z,2.57
2023-04-09T12:57:39.805Z,2.20
2023-04-09T13:00:09.053Z,2.33
2023-04-09T13:02:37.203Z,2.33
2023-04-09T13:05:05.578Z,2.20
2023-04-09T13:07:34.987Z,4.10
2023-04-09T13:10:02.942Z,3.13
2023-04-09T13:12:30.960Z,2.50
2023-04-09T13:14:59.361Z,3.50
2023-04-09T13:17:27.450Z,2.43
2023-04-09T13:19:55.564Z,2.73
2023-04-09T13:22:23.567Z,3.43
2023-04-09T13:24:52.866Z,3.27
2023-04-09T13:27:20.871Z,2.23
2023-04-09T13:29:48.834Z,3.13
2023-04-09T13:32:18.277Z,2.83
2023-04-09T13:34:46.265Z,2.37
2023-04-09T13:37:14.186Z,2.60
2023-04-09T13:39:42.149Z,2.67
2023-04-09T13:42:16.880Z,2.53
2023-04-09T13:44:45.626Z,3.10
2023-04-09T13:47:14.029Z,2.30
2023-04-09T13:49:42.048Z,2.63
2023-04-09T13:52:10.029Z,2.20
2023-04-09T13:54:38.198Z,1.90
2023-04-09T13:57:06.134Z,2.37
2023-04-09T13:59:36.133Z,3.30
2023-04-09T14:02:04.184Z,2.37
2023-04-09T14:04:32.252Z,2.73
2023-04-09T14:07:00.223Z,2.53
2023-04-09T14:09:28.172Z,2.37
2023-04-09T14:11:56.215Z,2.20
2023-04-09T14:14:24.171Z,2.30
2023-04-09T14:16:54.151Z,2.50
2023-04-09T14:19:22.120Z,3.10
2023-04-09T14:21:53.256Z,2.43
2023-04-09T14:24:23.107Z,2.57
2023-04-09T14:26:53.320Z,2.97
2023-04-09T14:29:22.189Z,2.30
2023-04-09T14:31:50.320Z,2.73
2023-04-09T14:34:19.710Z,2.07
2023-04-09T14:36:47.871Z,2.77
2023-04-09T14:39:15.794Z,2.37
2023-04-09T14:41:43.780Z,2.73
2023-04-09T14:44:11.806Z,2.20
2023-04-09T14:46:39.779Z,2.77
2023-04-09T14:49:07.756Z,2.43
2023-04-09T14:51:37.368Z,2.23
2023-04-09T14:54:05.354Z,2.53
2023-04-09T14:56:33.328Z,2.13
2023-04-09T14:59:01.264Z,2.37
2023-04-09T15:01:29.712Z,1.90
2023-04-09T15:03:58.845Z,2.43
2023-04-09T15:06:28.030Z,2.40
2023-04-09T15:08:57.367Z,3.13
2023-04-09T15:11:25.493Z,2.20
2023-04-09T15:13:53.501Z,2.50
2023-04-09T15:16:25.034Z,2.90
2023-04-09T15:18:55.781Z,2.20
2023-04-09T15:21:24.032Z,2.70
2023-04-09T15:23:52.330Z,2.87
2023-04-09T15:26:21.846Z,2.70
2023-04-09T15:28:49.874Z,2.60
2023-04-09T15:31:17.930Z,3.13
2023-04-09T15:33:47.044Z,2.17
2023-04-09T15:36:15.045Z,2.20
2023-04-09T15:38:43.065Z,2.47
2023-04-09T15:41:11.235Z,2.43
2023-04-09T15:43:40.608Z,2.53
2023-04-09T15:46:10.731Z,2.90
2023-04-09T15:48:38.851Z,2.10
2023-04-09T15:51:07.306Z,2.40
2023-04-09T15:53:35.257Z,2.27
2023-04-09T15:56:03.863Z,2.70
2023-04-09T15:58:31.891Z,2.20
2023-04-09T16:01:01.545Z,2.33
2023-04-09T16:03:31.643Z,2.83
2023-04-09T16:06:01.680Z,2.60
2023-04-09T16:08:29.663Z,2.37
2023-04-09T16:10:57.587Z,2.33
2023-04-09T16:13:25.554Z,3.00
2023-04-09T16:15:53.500Z,2.90
2023-04-09T16:18:22.857Z,2.80
2023-04-09T16:20:53.754Z,2.70
2023-04-09T16:23:22.191Z,2.30
2023-04-09T16:25:50.351Z,2.77
2023-04-09T16:28:18.391Z,2.27
2023-04-09T16:30:46.821Z,3.03
2023-04-09T16:33:14.867Z,2.30
2023-04-09T16:35:44.345Z,2.80
2023-04-09T16:38:12.273Z,2.90
2023-04-09T16:40:40.642Z,2.40
2023-04-09T16:43:08.675Z,3.33
2023-04-09T16:45:36.715Z,2.50
2023-04-09T16:48:06.353Z,2.20
2023-04-09T16:50:34.319Z,2.43
2023-04-09T16:53:04.520Z,3.30
2023-04-09T16:55:32.511Z,3.70
2023-04-09T16:58:00.495Z,3.13
2023-04-09T17:00:28.715Z,2.93
2023-04-09T17:02:57.957Z,3.33
2023-04-09T17:05:26.066Z,2.27
2023-04-09T17:07:54.507Z,3.20
2023-04-09T17:10:23.890Z,4.63
2023-04-09T17:12:51.876Z,2.90
2023-04-09T17:15:19.837Z,3.73
2023-04-09T17:17:49.575Z,3.10
2023-04-09T17:20:18.140Z,3.50
2023-04-09T17:22:46.438Z,3.10
2023-04-09T17:25:14.445Z,2.80
2023-04-09T17:27:45.383Z,2.60
2023-04-09T17:30:13.803Z,2.43
2023-04-09T17:32:43.766Z,3.80
2023-04-09T17:35:11.847Z,2.77
2023-04-09T17:37:39.828Z,3.33
2023-04-09T17:40:09.061Z,2.73
2023-04-09T17:42:36.986Z,3.10
2023-04-09T17:45:07.502Z,3.17
2023-04-09T17:47:35.511Z,3.73
2023-04-09T17:50:04.401Z,3.30
2023-04-09T17:52:36.736Z,3.47
2023-04-09T17:55:07.214Z,3.20
2023-04-09T17:57:35.693Z,2.90
2023-04-09T18:00:04.951Z,3.27
2023-04-09T18:02:34.720Z,4.00
2023-04-09T18:05:04.617Z,4.53
2023-04-09T18:07:34.297Z,6.17
2023-04-09T18:10:02.573Z,8.13
2023-04-09T18:12:30.693Z,7.57
2023-04-09T18:14:58.646Z,9.57
2023-04-09T18:17:27.287Z,7.20
2023-04-09T18:19:58.351Z,8.77
2023-04-09T18:22:27.040Z,7.67
2023-04-09T18:24:55.127Z,7.60
2023-04-09T18:27:23.175Z,8.80
2023-04-09T18:29:51.136Z,7.80
2023-04-09T18:32:19.802Z,8.20
2023-04-09T18:34:48.058Z,8.90
2023-04-09T18:37:17.497Z,8.00
2023-04-09T18:39:46.333Z,7.27
2023-04-09T18:42:14.412Z,7.33
2023-04-09T18:44:42.625Z,8.97
2023-04-09T18:47:12.357Z,9.33
2023-04-09T18:49:40.478Z,9.10
2023-04-09T18:52:09.452Z,8.40
2023-04-09T18:54:39.065Z,9.07
2023-04-09T18:57:07.538Z,6.47
2023-04-09T18:59:35.744Z,6.83
2023-04-09T19:02:05.074Z,7.43
2023-04-09T19:04:36.344Z,9.50
2023-04-09T19:07:04.679Z,6.80
2023-04-09T19:09:33.061Z,6.80
2023-04-09T19:12:02.704Z,7.60
2023-04-09T19:14:30.751Z,7.40
2023-04-09T19:16:59.680Z,11.47
2023-04-09T19:19:29.119Z,9.07
2023-04-09T19:21:57.359Z,8.70
2023-04-09T19:24:25.499Z,7.70
2023-04-09T19:26:53.658Z,7.70
2023-04-09T19:29:22.992Z,7.20
2023-04-09T19:31:51.208Z,5.80
2023-04-09T19:34:19.233Z,5.90
2023-04-09T19:36:47.175Z,7.30
2023-04-09T19:39:15.534Z,7.30
2023-04-09T19:41:43.498Z,6.70
2023-04-09T19:44:11.446Z,6.67
2023-04-09T19:46:41.047Z,5.00
2023-04-09T19:49:09.041Z,6.50
2023-04-09T19:51:37.072Z,5.93
2023-04-09T19:54:05.388Z,5.63
2023-04-09T19:56:33.458Z,6.30
2023-04-09T19:59:02.303Z,6.63
2023-04-09T20:01:30.336Z,7.27
2023-04-09T20:03:59.823Z,6.70
2023-04-09T20:06:28.967Z,6.07
2023-04-09T20:08:56.982Z,6.70
2023-04-09T20:11:24.906Z,6.57
2023-04-09T20:13:52.912Z,6.73
2023-04-09T20:16:20.888Z,7.87
2023-04-09T20:18:48.845Z,7.90
2023-04-09T20:21:18.805Z,7.50
2023-04-09T20:23:46.751Z,7.10
2023-04-09T20:26:14.744Z,7.70
2023-04-09T20:28:42.773Z,8.63
2023-04-09T20:31:10.721Z,8.37
2023-04-09T20:33:38.677Z,7.40
2023-04-09T20:36:14.509Z,6.53
2023-04-09T20:38:43.913Z,6.33
2023-04-09T20:41:11.821Z,6.93
2023-04-09T20:43:39.791Z,6.47
2023-04-09T20:46:07.845Z,7.90
2023-04-09T20:48:35.868Z,6.33
2023-04-09T20:51:04.793Z,8.00
2023-04-09T20:53:33.039Z,7.90
2023-04-09T20:56:02.511Z,7.57
2023-04-09T20:58:30.498Z,8.00
2023-04-09T21:01:04.974Z,6.27
2023-04-09T21:03:33.075Z,6.70
2023-04-09T21:06:01.213Z,7.83
2023-04-09T21:08:29.224Z,7.50
2023-04-09T21:10:57.269Z,7.77
2023-04-09T21:13:27.398Z,9.27
2023-04-09T21:15:55.962Z,9.10
2023-04-09T21:18:24.085Z,6.47
2023-04-09T21:20:52.054Z,7.50
2023-04-09T21:23:20.023Z,7.53
2023-04-09T21:25:48.043Z,5.73
2023-04-09T21:28:16.016Z,5.00
2023-04-09T21:30:45.425Z,6.60
2023-04-09T21:33:13.426Z,6.87
2023-04-09T21:35:41.410Z,7.57
2023-04-09T21:38:09.420Z,6.47
2023-04-09T21:40:37.352Z,8.03
2023-04-09T21:43:05.352Z,9.27
2023-04-09T21:45:33.322Z,7.83
2023-04-09T21:48:03.064Z,7.40
2023-04-09T21:50:32.631Z,8.20
2023-04-09T21:53:00.771Z,8.60
2023-04-09T21:55:28.718Z,8.67
2023-04-09T21:57:56.711Z,7.97
2023-04-09T22:00:24.748Z,6.77
2023-04-09T22:02:53.056Z,8.90
2023-04-09T22:05:23.291Z,8.90
2023-04-09T22:07:51.269Z,7.13
2023-04-09T22:10:19.658Z,7.23
2023-04-09T22:12:47.613Z,7.53
2023-04-09T22:15:16.410Z,6.83
2023-04-09T22:17:44.511Z,5.77
2023-04-09T22:20:12.704Z,6.03
2023-04-09T22:22:42.860Z,6.87
2023-04-09T22:25:12.021Z,7.63
2023-04-09T22:27:40.082Z,6.17
2023-04-09T22:30:10.909Z,7.87
2023-04-09T22:32:39.003Z,7.10
2023-04-09T22:35:07.608Z,7.70
2023-04-09T22:37:36.280Z,7.33
2023-04-09T22:40:10.016Z,6.27
2023-04-09T22:42:40.126Z,5.80
2023-04-09T22:45:09.780Z,5.57
2023-04-09T22:47:38.033Z,7.17
2023-04-09T22:50:06.988Z,6.70
2023-04-09T22:52:35.011Z,6.37
2023-04-09T22:55:03.060Z,7.33
2023-04-09T22:57:32.574Z,6.53
2023-04-09T23:00:00.805Z,5.90
2023-04-09T23:02:28.892Z,5.60
2023-04-09T23:04:57.474Z,5.87
2023-04-09T23:07:25.490Z,5.77
2023-04-09T23:09:54.929Z,4.30
2023-04-09T23:12:22.874Z,5.00
2023-04-09T23:14:52.179Z,3.97
2023-04-09T23:17:22.480Z,4.93
2023-04-09T23:19:50.452Z,4.80
2023-04-09T23:22:18.385Z,4.23
2023-04-09T23:24:46.329Z,5.47
2023-04-09T23:27:14.300Z,4.67
2023-04-09T23:29:42.271Z,5.10
2023-04-09T23:32:11.761Z,4.67
2023-04-09T23:34:39.697Z,4.57
2023-04-09T23:37:08.113Z,4.37
2023-04-09T23:39:36.155Z,4.73
2023-04-09T23:42:04.131Z,3.97
2023-04-09T23:44:32.524Z,4.27
2023-04-09T23:47:01.454Z,4.97
2023-04-09T23:49:30.884Z,5.03
2023-04-09T23:51:58.880Z,5.77
2023-04-09T23:54:26.826Z,4.60
2023-04-09T23:56:54.819Z,5.67
2023-04-09T23:59:22.785Z,4.77
